Terminal Aerodrome Forecast
Issued by NWS

Home | Current Version | Previous Version | Text Only | Print | Product List | Glossary On
Versions: 1 2 3 4 5 6 7 8 9 10 11 12 13 14 15 16 17 18 19 20
000
FTUS43 KTOP 161924 AAA
TAFMHK
TAF AMD
KMHK 161924Z 1619/1718 25006KT P6SM BKN045
     FM162100 26009KT P6SM VCSH BKN050
     FM162300 30007KT P6SM VCSH SCT050
     FM170200 34004KT P6SM BKN070
     FM171500 30010G17KT P6SM SCT150=

USA.gov is the U.S. government's official web portal to all federal, state and local government web resources and services.